Hlavní strana
METAR-TAF:

METAR-TAF

Letiště :

Pori, Finsko

zeměpisná šířka: 61-28N, zeměpisná délka: 021-48E, výška: 13 m

Aktuální stav počasí

Zpráva byla vytvořena před 29 minutami, v 04:50 UTC
Západoseverozápadní vítr 9 kt
Teplota 0°C
Vlhkost vzduchu 59%
Tlak 1025 hPa
Viditelnost 10 km a více
Žádná oblačnost pod 1500 m, nevyskytují se cumulonimby.

METAR: EFPO 050450Z AUTO 30009KT CAVOK 00/M07 Q1025

Čas: 08:19 (05:19 UTC)


TAF: chybějící

Stav a předpovědi počasí z více než 4 000 letišť (zprávy METAR a TAF).

Červené a žluté tečky na mapě představují dostupné meteorologické stanice.

Když kurzor umístíte na tečku, zobrazí se název stanice.

Pak kliknutím zobrazíte stav a předpověď počasí.

Chcete-li změnit mapu, kliknutím na zelené tlačítko se znaménkem +mapu přiblížíte, kliknutím na zelené tlačítko se znaménkem – mapu oddálíte a kliknutím na zelené šipky přejdete na sousední mapy.


METAR-TAF: